createdAt,value
2022-09-21T00:14:37.003Z,99.90
2022-09-21T00:17:05.494Z,99.90
2022-09-21T00:19:36.472Z,99.90
2022-09-21T00:22:04.874Z,99.90
2022-09-21T00:24:33.545Z,99.90
2022-09-21T00:27:01.911Z,99.90
2022-09-21T00:29:30.265Z,99.90
2022-09-21T00:32:00.154Z,99.90
2022-09-21T00:34:28.725Z,99.90
2022-09-21T00:36:57.101Z,99.90
2022-09-21T00:39:25.532Z,99.90
2022-09-21T00:41:54.001Z,99.90
2022-09-21T00:44:29.812Z,99.90
2022-09-21T00:47:05.776Z,99.90
2022-09-21T00:49:36.701Z,99.90
2022-09-21T00:52:08.133Z,99.90
2022-09-21T00:54:43.638Z,99.90
2022-09-21T00:57:12.603Z,99.90
2022-09-21T00:59:43.727Z,99.90
2022-09-21T01:02:15.482Z,99.90
2022-09-21T01:04:44.644Z,99.90
2022-09-21T01:07:18.280Z,99.90
2022-09-21T01:09:49.654Z,99.90
2022-09-21T01:12:35.028Z,99.90
2022-09-21T01:15:21.690Z,99.90
2022-09-21T01:18:00.422Z,99.90
2022-09-21T01:20:45.460Z,99.90
2022-09-21T01:23:25.451Z,99.90
2022-09-21T01:26:03.757Z,99.90
2022-09-21T01:28:43.753Z,99.90
2022-09-21T01:31:21.555Z,99.90
2022-09-21T01:33:54.206Z,99.90
2022-09-21T01:36:27.214Z,99.90
2022-09-21T01:39:01.500Z,99.90
2022-09-21T01:41:33.545Z,99.90
2022-09-21T01:44:08.634Z,99.90
2022-09-21T01:46:39.349Z,99.90
2022-09-21T01:49:12.197Z,99.90
2022-09-21T01:51:45.293Z,99.90
2022-09-21T01:54:17.157Z,99.90
2022-09-21T01:56:49.378Z,99.90
2022-09-21T01:59:23.471Z,99.90
2022-09-21T02:01:56.253Z,99.90
2022-09-21T02:04:25.429Z,99.90
2022-09-21T02:06:54.125Z,99.90
2022-09-21T02:09:22.546Z,99.90
2022-09-21T02:11:50.627Z,99.90
2022-09-21T02:14:22.235Z,99.90
2022-09-21T02:16:57.450Z,99.90
2022-09-21T02:19:36.040Z,99.90
2022-09-21T02:22:08.053Z,99.90
2022-09-21T02:24:42.231Z,99.90
2022-09-21T02:27:20.299Z,99.90
2022-09-21T02:29:51.890Z,99.90
2022-09-21T02:32:35.187Z,99.90
2022-09-21T02:35:07.131Z,99.90
2022-09-21T02:37:39.050Z,99.90
2022-09-21T02:40:18.344Z,99.90
2022-09-21T02:42:49.559Z,99.90
2022-09-21T02:45:22.796Z,99.90
2022-09-21T02:47:59.035Z,99.90
2022-09-21T02:50:34.053Z,99.90
2022-09-21T02:53:04.998Z,99.90
2022-09-21T02:55:34.791Z,99.90
2022-09-21T02:58:06.949Z,99.90
2022-09-21T03:05:57.139Z,99.90
2022-09-21T03:08:25.271Z,99.90
2022-09-21T03:10:53.977Z,99.90
2022-09-21T03:13:22.033Z,99.90
2022-09-21T03:15:50.153Z,99.90
2022-09-21T03:18:18.166Z,99.90
2022-09-21T03:20:47.126Z,99.90
2022-09-21T03:23:16.522Z,99.90
2022-09-21T03:25:46.025Z,99.90
2022-09-21T03:28:14.919Z,99.90
2022-09-21T03:30:43.343Z,99.90
2022-09-21T03:33:12.885Z,99.90
2022-09-21T03:35:41.305Z,99.90
2022-09-21T03:38:09.556Z,99.90
2022-09-21T03:40:38.960Z,99.90
2022-09-21T03:43:07.214Z,99.90
2022-09-21T03:45:35.242Z,99.90
2022-09-21T03:48:03.887Z,99.90
2022-09-21T03:50:31.907Z,99.90
2022-09-21T03:53:00.156Z,99.90
2022-09-21T03:55:29.820Z,99.90
2022-09-21T03:57:59.179Z,99.90
2022-09-21T04:00:27.507Z,99.90
2022-09-21T04:02:55.735Z,99.90
2022-09-21T04:05:24.248Z,99.90
2022-09-21T04:07:52.297Z,99.90
2022-09-21T04:10:23.475Z,99.90
2022-09-21T04:12:52.125Z,99.90
2022-09-21T04:15:21.633Z,99.90
2022-09-21T04:17:52.132Z,99.90
2022-09-21T04:20:20.456Z,99.90
2022-09-21T04:22:48.746Z,99.90
2022-09-21T04:25:17.158Z,99.90
2022-09-21T04:27:45.222Z,99.90
2022-09-21T04:30:15.140Z,99.90
2022-09-21T04:32:44.596Z,99.90
2022-09-21T04:35:12.772Z,99.90
2022-09-21T04:37:40.786Z,99.90
2022-09-21T04:40:10.269Z,99.90
2022-09-21T04:42:38.520Z,99.90
2022-09-21T04:45:07.837Z,99.90
2022-09-21T04:47:35.996Z,99.90
2022-09-21T04:50:06.131Z,99.90
2022-09-21T04:52:34.153Z,99.90
2022-09-21T04:55:02.206Z,99.90
2022-09-21T04:57:30.202Z,99.90
2022-09-21T04:59:58.229Z,99.90
2022-09-21T05:02:26.318Z,99.90
2022-09-21T05:04:54.393Z,99.90
2022-09-21T05:07:23.779Z,99.90
2022-09-21T05:10:06.166Z,99.90
2022-09-21T05:12:38.571Z,99.90
2022-09-21T05:15:10.503Z,99.90
2022-09-21T05:17:38.563Z,99.90
2022-09-21T05:20:07.677Z,99.90
2022-09-21T05:22:37.099Z,99.90
2022-09-21T05:25:05.840Z,99.90
2022-09-21T05:27:33.838Z,99.90
2022-09-21T05:30:02.423Z,99.90
2022-09-21T05:32:42.676Z,99.90
2022-09-21T05:35:19.411Z,99.90
2022-09-21T05:37:54.921Z,99.90
2022-09-21T05:40:23.392Z,99.90
2022-09-21T05:42:51.976Z,99.90
2022-09-21T05:45:23.102Z,99.90
2022-09-21T05:47:58.685Z,99.90
2022-09-21T05:50:39.404Z,99.90
2022-09-21T05:53:26.099Z,99.90
2022-09-21T05:55:57.965Z,99.90
2022-09-21T05:58:34.305Z,99.90
2022-09-21T06:01:21.878Z,99.90
2022-09-21T06:03:50.568Z,99.90
2022-09-21T06:06:19.469Z,99.90
2022-09-21T06:08:49.174Z,99.90
2022-09-21T06:11:17.569Z,99.90
2022-09-21T06:13:45.905Z,99.90
2022-09-21T06:16:14.143Z,99.90
2022-09-21T06:18:42.689Z,99.90
2022-09-21T06:21:11.136Z,99.90
2022-09-21T06:23:39.223Z,99.90
2022-09-21T06:26:08.682Z,99.90
2022-09-21T06:28:36.716Z,99.90
2022-09-21T06:31:04.877Z,99.90
2022-09-21T06:33:32.982Z,99.90
2022-09-21T06:36:01.578Z,99.90
2022-09-21T06:38:30.213Z,99.90
2022-09-21T06:41:03.194Z,99.90
2022-09-21T06:44:09.878Z,99.90
2022-09-21T06:46:37.903Z,99.90
2022-09-21T06:49:05.907Z,99.90
2022-09-21T06:51:33.940Z,99.90
2022-09-21T06:54:01.940Z,99.90
2022-09-21T06:56:30.041Z,99.90
2022-09-21T06:58:58.196Z,99.90
2022-09-21T07:01:27.746Z,99.90
2022-09-21T07:03:55.982Z,99.90
2022-09-21T07:06:24.148Z,99.90
2022-09-21T07:11:41.913Z,99.90
2022-09-21T07:14:10.000Z,99.90
2022-09-21T07:16:39.980Z,99.90
2022-09-21T07:19:11.975Z,99.40
2022-09-21T07:21:40.354Z,99.00
2022-09-21T07:24:12.240Z,96.40
2022-09-21T07:26:41.130Z,96.90
2022-09-21T07:29:09.403Z,97.00
2022-09-21T07:31:39.202Z,96.50
2022-09-21T07:34:07.387Z,96.10
2022-09-21T07:36:35.441Z,95.20
2022-09-21T07:39:04.051Z,95.60
2022-09-21T07:41:32.245Z,95.30
2022-09-21T07:44:00.243Z,95.60
2022-09-21T07:46:28.338Z,96.50
2022-09-21T07:48:58.329Z,94.40
2022-09-21T07:51:26.577Z,94.00
2022-09-21T07:53:57.746Z,94.10
2022-09-21T07:56:26.493Z,94.60
2022-09-21T07:59:08.543Z,95.70
2022-09-21T08:01:38.806Z,95.20
2022-09-21T08:04:10.942Z,94.90
2022-09-21T08:06:40.809Z,94.10
2022-09-21T08:09:09.571Z,93.90
2022-09-21T08:11:39.104Z,94.30
2022-09-21T08:14:07.354Z,94.20
2022-09-21T08:16:35.892Z,95.00
2022-09-21T08:19:05.404Z,95.00
2022-09-21T08:21:34.818Z,93.90
2022-09-21T08:24:03.114Z,92.90
2022-09-21T08:26:31.218Z,93.50
2022-09-21T08:28:59.476Z,93.40
2022-09-21T08:31:29.162Z,93.00
2022-09-21T08:33:57.678Z,92.90
2022-09-21T08:36:26.410Z,93.60
2022-09-21T08:38:56.933Z,93.50
2022-09-21T08:41:27.570Z,93.20
2022-09-21T08:44:01.432Z,91.80
2022-09-21T08:46:32.566Z,91.40
2022-09-21T08:49:07.035Z,91.60
2022-09-21T08:51:39.529Z,92.20
2022-09-21T08:54:17.999Z,93.10
2022-09-21T08:57:04.372Z,94.00
2022-09-21T08:59:34.306Z,94.20
2022-09-21T09:02:21.541Z,92.30
2022-09-21T09:04:58.310Z,93.50
2022-09-21T09:07:51.371Z,93.00
2022-09-21T09:10:37.215Z,93.00
2022-09-21T09:13:20.504Z,92.00
2022-09-21T09:16:00.301Z,92.10
2022-09-21T09:18:43.278Z,91.80
2022-09-21T09:21:23.949Z,91.90
2022-09-21T09:24:00.637Z,93.10
2022-09-21T09:26:36.729Z,94.60
2022-09-21T09:29:13.124Z,96.60
2022-09-21T09:31:42.764Z,96.70
2022-09-21T09:34:14.041Z,96.60
2022-09-21T09:36:58.297Z,97.70
2022-09-21T09:39:29.602Z,99.60
2022-09-21T09:42:30.227Z,99.90
2022-09-21T09:45:24.866Z,99.90
2022-09-21T09:51:36.782Z,99.90
2022-09-21T09:54:10.134Z,99.90
2022-09-21T09:56:38.397Z,99.90
2022-09-21T09:59:15.132Z,99.90
2022-09-21T10:01:46.418Z,99.90
2022-09-21T10:04:16.756Z,99.90
2022-09-21T10:06:46.998Z,99.90
2022-09-21T10:09:25.245Z,99.90
2022-09-21T10:11:54.351Z,99.90
2022-09-21T10:14:25.671Z,99.90
2022-09-21T10:16:56.826Z,99.90
2022-09-21T10:19:27.466Z,99.90
2022-09-21T10:21:58.633Z,99.90
2022-09-21T10:24:29.366Z,99.90
2022-09-21T10:27:04.762Z,99.90
2022-09-21T10:29:41.940Z,99.90
2022-09-21T10:32:25.418Z,99.90
2022-09-21T10:35:14.912Z,99.90
2022-09-21T10:37:44.038Z,99.90
2022-09-21T10:40:30.858Z,99.90
2022-09-21T10:43:01.350Z,99.90
2022-09-21T10:45:31.824Z,99.90
2022-09-21T10:48:08.332Z,99.90
2022-09-21T10:50:38.769Z,99.90
2022-09-21T10:53:15.346Z,99.90
2022-09-21T10:55:58.460Z,99.90
2022-09-21T10:58:37.271Z,99.90
2022-09-21T11:01:15.056Z,99.90
2022-09-21T11:03:54.890Z,99.00
2022-09-21T11:06:26.622Z,98.40
2022-09-21T11:08:59.169Z,99.30
2022-09-21T11:11:47.817Z,98.30
2022-09-21T11:14:25.535Z,97.10
2022-09-21T11:16:59.284Z,97.20
2022-09-21T11:19:35.348Z,97.80
2022-09-21T11:22:13.147Z,98.10
2022-09-21T11:24:48.158Z,97.00
2022-09-21T11:27:21.167Z,97.40
2022-09-21T11:29:58.270Z,97.30
2022-09-21T11:32:48.049Z,97.90
2022-09-21T11:35:36.686Z,97.70
2022-09-21T11:38:11.408Z,96.20
2022-09-21T11:41:00.690Z,95.70
2022-09-21T11:43:46.895Z,96.40
2022-09-21T11:46:25.663Z,97.50
2022-09-21T11:49:13.677Z,97.10
2022-09-21T11:51:58.878Z,96.00
2022-09-21T11:54:57.327Z,95.90
2022-09-21T11:57:28.574Z,96.30
2022-09-21T12:00:15.671Z,97.40
2022-09-21T12:03:10.683Z,97.70
2022-09-21T12:05:47.299Z,97.90
2022-09-21T12:08:44.980Z,97.20
2022-09-21T12:11:23.302Z,98.40
2022-09-21T12:13:58.298Z,98.30
2022-09-21T12:16:33.980Z,99.00
2022-09-21T12:19:11.003Z,99.20
2022-09-21T12:21:44.207Z,98.40
2022-09-21T12:24:18.398Z,98.10
2022-09-21T12:26:52.005Z,98.40
2022-09-21T12:29:26.804Z,98.70
2022-09-21T12:32:03.816Z,98.50
2022-09-21T12:34:41.014Z,99.00
2022-09-21T12:37:15.736Z,98.70
2022-09-21T12:39:50.114Z,98.80
2022-09-21T12:42:31.701Z,98.90
2022-09-21T12:45:07.026Z,98.80
2022-09-21T12:47:46.411Z,97.60
2022-09-21T12:50:21.604Z,98.10
2022-09-21T12:52:52.416Z,97.20
2022-09-21T12:55:33.245Z,96.70
2022-09-21T12:58:15.632Z,96.50
2022-09-21T13:01:00.361Z,96.60
2022-09-21T13:03:34.389Z,95.90
2022-09-21T13:06:30.593Z,96.00
2022-09-21T13:09:06.181Z,95.70
2022-09-21T13:11:49.807Z,95.30
2022-09-21T13:14:19.434Z,93.40
2022-09-21T13:16:57.593Z,93.30
2022-09-21T13:19:27.866Z,93.30
2022-09-21T13:22:13.818Z,93.70
2022-09-21T13:24:45.540Z,93.60
2022-09-21T13:27:13.907Z,94.40
2022-09-21T13:29:43.111Z,94.00
2022-09-21T13:32:24.780Z,94.20
2022-09-21T13:34:52.933Z,93.90
2022-09-21T13:37:31.218Z,94.20
2022-09-21T13:40:39.870Z,94.30
2022-09-21T13:43:22.265Z,92.60
2022-09-21T13:45:58.303Z,93.40
2022-09-21T13:48:30.434Z,92.90
2022-09-21T13:51:01.567Z,92.10
2022-09-21T13:53:35.775Z,92.10
2022-09-21T13:56:10.007Z,92.60
2022-09-21T13:58:45.773Z,93.10
2022-09-21T14:01:45.143Z,93.60
2022-09-21T14:04:23.697Z,93.80
2022-09-21T14:06:54.260Z,93.70
2022-09-21T14:09:27.627Z,93.10
2022-09-21T14:11:58.434Z,93.60
2022-09-21T14:14:36.912Z,93.50
2022-09-21T14:17:07.126Z,93.70
2022-09-21T14:20:07.728Z,93.80
2022-09-21T14:22:43.670Z,94.30
2022-09-21T14:25:28.246Z,94.30
2022-09-21T14:28:02.059Z,94.70
2022-09-21T14:30:35.594Z,94.60
2022-09-21T14:33:27.926Z,94.20
2022-09-21T14:35:57.453Z,95.50
2022-09-21T14:38:28.582Z,95.20
2022-09-21T14:41:02.140Z,95.40
2022-09-21T14:43:33.884Z,95.30
2022-09-21T14:46:45.745Z,95.40
2022-09-21T14:49:33.037Z,95.50
2022-09-21T14:52:20.019Z,94.60
2022-09-21T14:55:03.182Z,95.30
2022-09-21T14:57:50.548Z,95.20
2022-09-21T15:00:23.484Z,95.50
2022-09-21T15:03:05.611Z,95.90
2022-09-21T15:05:38.105Z,95.90
2022-09-21T15:08:47.647Z,95.90
2022-09-21T15:11:23.274Z,96.40
2022-09-21T15:14:04.789Z,97.20
2022-09-21T15:16:40.839Z,96.60
2022-09-21T15:19:24.829Z,96.60
2022-09-21T15:21:54.562Z,96.60
2022-09-21T15:24:28.517Z,96.80
2022-09-21T15:27:04.065Z,96.50
2022-09-21T15:29:33.742Z,96.40
2022-09-21T15:32:02.613Z,96.80
2022-09-21T15:34:32.424Z,97.10
2022-09-21T15:37:17.361Z,97.10
2022-09-21T15:39:45.562Z,96.90
2022-09-21T15:42:20.012Z,96.40
2022-09-21T15:44:50.663Z,96.80
2022-09-21T15:47:24.131Z,97.60
2022-09-21T15:49:56.918Z,97.60
2022-09-21T15:52:31.625Z,97.60
2022-09-21T15:55:02.880Z,97.80
2022-09-21T15:57:38.737Z,97.50
2022-09-21T16:00:18.348Z,98.10
2022-09-21T16:03:04.583Z,98.70
2022-09-21T16:05:45.199Z,98.80
2022-09-21T16:08:28.840Z,99.40
2022-09-21T16:18:35.790Z,99.30
2022-09-21T16:21:17.283Z,99.90
2022-09-21T16:23:45.321Z,99.90
2022-09-21T16:26:21.580Z,99.90
2022-09-21T16:28:50.669Z,99.90
2022-09-21T16:31:24.925Z,99.90
2022-09-21T16:34:07.980Z,99.90
2022-09-21T16:36:42.597Z,99.90
2022-09-21T16:39:15.557Z,99.90
2022-09-21T16:41:52.434Z,99.90
2022-09-21T16:44:22.743Z,99.90
2022-09-21T16:46:55.182Z,99.90
2022-09-21T16:49:30.020Z,99.90
2022-09-21T16:52:01.405Z,99.90
2022-09-21T16:54:30.252Z,99.90
2022-09-21T16:56:59.907Z,99.90
2022-09-21T16:59:28.697Z,99.90
2022-09-21T17:01:59.082Z,99.90
2022-09-21T17:04:29.767Z,99.90
2022-09-21T17:07:00.424Z,99.90
2022-09-21T17:09:32.559Z,99.90
2022-09-21T17:12:01.815Z,99.90
2022-09-21T17:14:35.458Z,99.90
2022-09-21T17:17:08.402Z,99.90
2022-09-21T17:19:36.949Z,99.90
2022-09-21T17:22:07.887Z,99.90
2022-09-21T17:24:50.356Z,99.90
2022-09-21T17:27:21.452Z,99.90
2022-09-21T17:29:50.399Z,99.90
2022-09-21T17:32:20.785Z,99.90
2022-09-21T17:34:53.324Z,99.90
2022-09-21T17:37:24.125Z,99.90
2022-09-21T17:51:43.429Z,99.90
2022-09-21T17:54:13.648Z,99.90
2022-09-21T17:56:48.093Z,99.90
2022-09-21T17:59:27.972Z,99.90
2022-09-21T18:01:59.390Z,99.90
2022-09-21T18:08:19.860Z,99.90
2022-09-21T18:10:59.190Z,99.90
2022-09-21T18:13:38.264Z,99.90
2022-09-21T18:16:27.234Z,99.90
2022-09-21T18:19:05.614Z,99.90
2022-09-21T18:21:38.052Z,99.90
2022-09-21T18:24:21.055Z,99.90
2022-09-21T18:26:52.609Z,99.90
2022-09-21T18:29:40.867Z,99.90
2022-09-21T18:32:28.436Z,99.90
2022-09-21T18:35:15.550Z,99.90
2022-09-21T18:37:52.065Z,99.90
2022-09-21T18:40:29.210Z,99.90
2022-09-21T18:43:06.148Z,99.90
2022-09-21T18:45:41.421Z,99.90
2022-09-21T18:48:25.540Z,99.90
2022-09-21T18:51:01.373Z,99.90
2022-09-21T18:53:37.088Z,99.90
2022-09-21T18:56:08.356Z,99.90
2022-09-21T18:58:38.588Z,99.90
2022-09-21T19:01:07.552Z,99.90
2022-09-21T19:03:37.899Z,99.90
2022-09-21T19:06:22.228Z,99.90
2022-09-21T19:08:59.832Z,99.90
2022-09-21T19:11:34.923Z,99.90
2022-09-21T19:14:12.057Z,99.90
2022-09-21T19:16:48.516Z,99.90
2022-09-21T19:19:28.401Z,99.90
2022-09-21T19:22:01.228Z,99.90
2022-09-21T19:24:36.784Z,99.90
2022-09-21T19:27:19.929Z,99.90
2022-09-21T19:30:03.743Z,99.90
2022-09-21T19:32:39.451Z,99.90
2022-09-21T19:35:17.394Z,99.90
2022-09-21T19:37:47.195Z,99.90
2022-09-21T19:40:16.192Z,99.90
2022-09-21T19:43:03.996Z,99.90
2022-09-21T19:45:45.137Z,99.90
2022-09-21T19:48:16.530Z,99.90
2022-09-21T19:50:49.626Z,99.90
2022-09-21T19:53:35.527Z,99.90
2022-09-21T19:56:26.436Z,99.90
2022-09-21T19:59:12.200Z,99.90
2022-09-21T20:01:52.491Z,99.90
2022-09-21T20:04:27.577Z,99.90
2022-09-21T20:07:03.350Z,99.90
2022-09-21T20:09:39.923Z,99.90
2022-09-21T20:12:15.822Z,99.90
2022-09-21T20:14:47.005Z,99.90
2022-09-21T20:17:22.094Z,99.90
2022-09-21T20:19:56.950Z,99.90
2022-09-21T20:22:33.703Z,99.90
2022-09-21T20:25:07.100Z,99.90
2022-09-21T20:27:39.700Z,99.90
2022-09-21T20:30:10.754Z,99.90
2022-09-21T20:32:43.868Z,99.90
2022-09-21T20:35:17.166Z,99.90
2022-09-21T20:37:47.045Z,99.90
2022-09-21T20:40:16.289Z,99.90
2022-09-21T20:42:44.589Z,99.90
2022-09-21T20:45:13.922Z,99.90
2022-09-21T20:47:43.804Z,99.90
2022-09-21T20:50:13.618Z,99.90
2022-09-21T20:52:43.098Z,99.90
2022-09-21T20:55:13.694Z,99.90
2022-09-21T20:57:41.806Z,99.90
2022-09-21T21:00:12.794Z,99.90
2022-09-21T21:02:41.223Z,99.90
2022-09-21T21:05:11.791Z,99.90
2022-09-21T21:07:42.470Z,99.90
2022-09-21T21:10:13.309Z,99.90
2022-09-21T21:12:41.746Z,99.90
2022-09-21T21:15:11.302Z,99.90
2022-09-21T21:17:39.642Z,99.90
2022-09-21T21:20:10.606Z,99.90
2022-09-21T21:22:38.810Z,99.90
2022-09-21T21:25:07.301Z,99.90
2022-09-21T21:27:36.179Z,99.90
2022-09-21T21:30:05.334Z,99.90
2022-09-21T21:32:33.704Z,99.90
2022-09-21T21:35:02.124Z,99.90
2022-09-21T21:37:31.656Z,99.90
2022-09-21T21:39:59.645Z,99.90
2022-09-21T21:42:29.532Z,99.90
2022-09-21T21:44:57.738Z,99.90
2022-09-21T21:47:41.609Z,99.90
2022-09-21T21:50:10.639Z,99.90
2022-09-21T21:52:40.563Z,99.90
2022-09-21T21:55:10.232Z,99.90
2022-09-21T21:57:38.225Z,99.90
2022-09-21T22:00:08.319Z,99.90
2022-09-21T22:02:36.788Z,99.90
2022-09-21T22:05:04.948Z,99.90
2022-09-21T22:07:33.294Z,99.90
2022-09-21T22:10:03.065Z,99.90
2022-09-21T22:12:31.717Z,99.90
2022-09-21T22:14:59.732Z,99.90
2022-09-21T22:17:27.756Z,99.90
2022-09-21T22:19:56.630Z,99.90
2022-09-21T22:22:24.816Z,99.90
2022-09-21T22:28:47.269Z,99.90
2022-09-21T22:31:18.032Z,99.90
2022-09-21T22:33:46.759Z,99.90
2022-09-21T22:36:16.670Z,99.90
2022-09-21T22:38:45.398Z,99.90
2022-09-21T22:41:14.856Z,99.90
2022-09-21T22:43:42.884Z,99.90
2022-09-21T22:46:12.667Z,99.90
2022-09-21T22:48:40.871Z,99.90
2022-09-21T22:51:09.541Z,99.90
2022-09-21T22:53:37.722Z,99.90
2022-09-21T22:56:08.042Z,99.90
2022-09-21T22:58:38.732Z,99.90
2022-09-21T23:01:08.693Z,99.90
2022-09-21T23:03:39.031Z,99.90
2022-09-21T23:06:09.013Z,99.90
2022-09-21T23:08:37.750Z,99.90
2022-09-21T23:11:11.697Z,99.90
2022-09-21T23:13:39.751Z,99.90
2022-09-21T23:16:09.662Z,99.90
2022-09-21T23:18:40.999Z,99.90
2022-09-21T23:21:11.782Z,99.90
2022-09-21T23:23:40.330Z,99.90
2022-09-21T23:26:10.865Z,99.90
2022-09-21T23:28:40.113Z,99.90
2022-09-21T23:31:10.639Z,99.90
2022-09-21T23:33:42.875Z,99.90
2022-09-21T23:36:13.012Z,99.90
2022-09-21T23:38:41.763Z,99.90
2022-09-21T23:41:11.917Z,99.90
2022-09-21T23:43:42.012Z,99.90
2022-09-21T23:46:12.169Z,99.90
2022-09-21T23:48:41.943Z,99.90
2022-09-21T23:58:41.199Z,99.90
